createdAt,value
2023-03-21T00:02:24.085Z,1.73
2023-03-21T00:04:53.735Z,1.52
2023-03-21T00:07:22.535Z,1.13
2023-03-21T00:09:49.965Z,1.23
2023-03-21T00:12:20.880Z,1.30
2023-03-21T00:14:48.334Z,1.20
2023-03-21T00:17:17.249Z,0.85
2023-03-21T00:19:46.173Z,1.23
2023-03-21T00:22:13.797Z,1.70
2023-03-21T00:24:41.484Z,1.00
2023-03-21T00:27:41.366Z,1.27
2023-03-21T00:29:56.613Z,1.27
2023-03-21T00:32:25.666Z,1.55
2023-03-21T00:35:03.859Z,1.50
2023-03-21T00:37:37.065Z,1.38
2023-03-21T00:40:16.403Z,1.77
2023-03-21T00:42:47.082Z,1.45
2023-03-21T00:45:15.418Z,1.80
2023-03-21T00:47:44.291Z,1.35
2023-03-21T00:50:12.695Z,1.60
2023-03-21T00:52:41.282Z,1.33
2023-03-21T00:55:14.309Z,1.45
2023-03-21T00:57:45.342Z,1.30
2023-03-21T01:00:17.934Z,1.42
2023-03-21T01:03:02.638Z,1.40
2023-03-21T01:05:55.414Z,1.52
2023-03-21T01:08:31.170Z,1.20
2023-03-21T01:11:05.383Z,1.27
2023-03-21T01:13:34.603Z,1.27
2023-03-21T01:16:07.002Z,1.40
2023-03-21T01:18:37.036Z,1.30
2023-03-21T01:21:08.480Z,1.45
2023-03-21T01:23:36.246Z,1.02
2023-03-21T01:26:03.976Z,1.02
2023-03-21T01:28:32.017Z,1.17
2023-03-21T01:31:02.431Z,1.10
2023-03-21T01:33:30.648Z,1.40
2023-03-21T01:36:10.255Z,1.40
2023-03-21T01:38:40.358Z,1.10
2023-03-21T01:41:17.255Z,0.98
2023-03-21T01:43:47.236Z,1.17
2023-03-21T01:46:45.398Z,1.10
2023-03-21T01:49:24.830Z,1.02
2023-03-21T01:52:01.077Z,1.20
2023-03-21T01:54:35.142Z,0.88
2023-03-21T01:57:07.207Z,1.20
2023-03-21T01:59:38.647Z,1.10
2023-03-21T02:02:09.934Z,1.10
2023-03-21T02:04:39.009Z,1.30
2023-03-21T02:07:12.406Z,1.08
2023-03-21T02:09:42.894Z,1.05
2023-03-21T02:12:10.983Z,1.25
2023-03-21T02:14:39.887Z,1.27
2023-03-21T02:17:18.731Z,1.20
2023-03-21T02:20:25.135Z,1.10
2023-03-21T02:23:13.475Z,1.50
2023-03-21T02:26:09.188Z,1.23
2023-03-21T02:28:40.594Z,1.13
2023-03-21T02:31:36.960Z,1.63
2023-03-21T02:34:37.093Z,1.30
2023-03-21T02:37:16.046Z,1.00
2023-03-21T02:39:56.008Z,1.23
2023-03-21T02:42:30.465Z,1.08
2023-03-21T02:45:04.037Z,1.50
2023-03-21T02:47:35.484Z,1.23
2023-03-21T02:50:10.819Z,1.20
2023-03-21T02:52:41.416Z,1.20
2023-03-21T02:55:14.029Z,1.25
2023-03-21T02:57:44.451Z,1.25
2023-03-21T03:00:18.111Z,1.30
2023-03-21T03:02:46.544Z,1.25
2023-03-21T03:05:21.731Z,1.27
2023-03-21T03:08:11.676Z,1.35
2023-03-21T03:10:52.627Z,1.40
2023-03-21T03:16:05.206Z,1.00
2023-03-21T03:18:42.699Z,1.20
2023-03-21T03:21:16.042Z,1.20
2023-03-21T03:23:49.730Z,1.00
2023-03-21T03:26:21.796Z,1.20
2023-03-21T03:28:54.278Z,1.20
2023-03-21T03:31:27.520Z,1.20
2023-03-21T03:33:59.136Z,1.10
2023-03-21T03:36:33.125Z,1.20
2023-03-21T03:39:05.337Z,1.13
2023-03-21T03:42:02.976Z,1.90
2023-03-21T03:44:28.308Z,1.17
2023-03-21T03:47:02.098Z,1.30
2023-03-21T03:49:34.290Z,0.90
2023-03-21T03:52:06.614Z,1.13
2023-03-21T03:54:39.129Z,1.25
2023-03-21T03:57:08.694Z,1.10
2023-03-21T03:59:38.195Z,0.90
2023-03-21T04:02:06.003Z,1.45
2023-03-21T04:04:34.011Z,1.27
2023-03-21T04:07:03.435Z,1.60
2023-03-21T04:09:43.559Z,1.08
2023-03-21T04:14:45.577Z,1.10
2023-03-21T04:17:14.644Z,1.00
2023-03-21T04:19:42.431Z,1.00
2023-03-21T04:22:10.701Z,1.13
2023-03-21T04:24:38.443Z,1.20
2023-03-21T04:27:06.197Z,1.27
2023-03-21T04:29:35.224Z,1.35
2023-03-21T04:32:03.457Z,1.20
2023-03-21T04:34:31.043Z,1.38
2023-03-21T04:36:58.531Z,1.00
2023-03-21T04:39:26.018Z,1.20
2023-03-21T04:41:53.469Z,1.30
2023-03-21T04:44:20.962Z,1.17
2023-03-21T04:46:50.242Z,1.23
2023-03-21T04:49:18.399Z,1.08
2023-03-21T04:51:46.009Z,1.30
2023-03-21T04:56:42.676Z,1.38
2023-03-21T04:59:13.117Z,1.02
2023-03-21T05:01:43.707Z,1.50
2023-03-21T05:04:14.918Z,1.13
2023-03-21T05:06:43.800Z,1.30
2023-03-21T05:09:11.857Z,0.95
2023-03-21T05:11:41.075Z,1.20
2023-03-21T05:14:12.094Z,1.20
2023-03-21T05:16:48.352Z,1.42
2023-03-21T05:19:17.346Z,1.45
2023-03-21T05:21:45.040Z,1.55
2023-03-21T05:24:14.988Z,1.40
2023-03-21T05:26:43.918Z,1.27
2023-03-21T05:29:11.786Z,1.02
2023-03-21T05:31:39.240Z,1.10
2023-03-21T05:34:06.704Z,1.33
2023-03-21T05:36:36.042Z,1.10
2023-03-21T05:39:03.629Z,1.20
2023-03-21T05:41:31.075Z,1.50
2023-03-21T05:43:58.567Z,1.60
2023-03-21T05:46:26.053Z,1.20
2023-03-21T05:48:53.523Z,1.20
2023-03-21T05:51:21.080Z,1.45
2023-03-21T05:53:50.338Z,1.58
2023-03-21T05:56:17.783Z,1.50
2023-03-21T05:58:45.550Z,1.40
2023-03-21T06:01:13.009Z,1.50
2023-03-21T06:03:40.517Z,1.27
2023-03-21T06:06:08.825Z,1.50
2023-03-21T06:08:36.315Z,1.30
2023-03-21T06:11:05.434Z,1.42
2023-03-21T06:13:33.356Z,1.92
2023-03-21T06:16:01.453Z,1.65
2023-03-21T06:18:28.940Z,1.80
2023-03-21T06:20:57.376Z,1.67
2023-03-21T06:23:24.847Z,1.80
2023-03-21T06:25:52.289Z,1.67
2023-03-21T06:28:21.143Z,1.75
2023-03-21T06:30:48.569Z,1.92
2023-03-21T06:33:16.253Z,1.73
2023-03-21T06:35:43.776Z,2.17
2023-03-21T06:38:11.623Z,2.25
2023-03-21T06:40:40.214Z,2.38
2023-03-21T06:43:07.671Z,2.53
2023-03-21T06:45:36.892Z,2.58
2023-03-21T06:48:04.646Z,2.13
2023-03-21T06:50:32.278Z,2.10
2023-03-21T06:52:59.756Z,2.70
2023-03-21T06:55:28.831Z,2.45
2023-03-21T06:57:57.593Z,1.90
2023-03-21T07:02:54.675Z,2.00
2023-03-21T07:05:22.138Z,1.48
2023-03-21T07:07:49.598Z,2.47
2023-03-21T07:10:17.133Z,2.25
2023-03-21T07:12:44.621Z,1.88
2023-03-21T07:15:12.237Z,2.22
2023-03-21T07:17:39.735Z,2.03
2023-03-21T07:20:10.397Z,1.88
2023-03-21T07:22:37.863Z,2.08
2023-03-21T07:25:07.701Z,3.00
2023-03-21T07:27:35.253Z,1.30
2023-03-21T07:30:02.719Z,2.28
2023-03-21T07:32:33.760Z,2.20
2023-03-21T07:35:01.988Z,2.13
2023-03-21T07:37:30.801Z,3.13
2023-03-21T07:42:25.672Z,2.20
2023-03-21T07:44:54.920Z,1.75
2023-03-21T07:47:22.459Z,1.80
2023-03-21T07:49:49.891Z,2.03
2023-03-21T07:52:17.335Z,2.40
2023-03-21T07:54:46.193Z,1.73
2023-03-21T07:57:13.933Z,2.53
2023-03-21T07:59:41.407Z,2.38
2023-03-21T08:02:11.851Z,2.22
2023-03-21T08:04:40.023Z,2.20
2023-03-21T08:07:07.623Z,2.30
2023-03-21T08:09:36.130Z,2.47
2023-03-21T08:12:05.756Z,2.90
2023-03-21T08:14:33.236Z,2.17
2023-03-21T08:17:01.429Z,1.80
2023-03-21T08:19:28.913Z,1.88
2023-03-21T08:21:59.633Z,2.33
2023-03-21T08:24:27.133Z,1.77
2023-03-21T08:26:54.683Z,1.35
2023-03-21T08:29:24.980Z,2.20
2023-03-21T08:31:52.577Z,2.08
2023-03-21T08:34:22.947Z,1.90
2023-03-21T08:36:50.952Z,2.08
2023-03-21T08:39:18.461Z,2.28
2023-03-21T08:41:46.242Z,2.17
2023-03-21T08:44:16.129Z,2.58
2023-03-21T08:46:45.054Z,1.67
2023-03-21T08:49:12.723Z,2.10
2023-03-21T08:51:41.091Z,2.22
2023-03-21T08:54:08.636Z,2.40
2023-03-21T08:56:37.480Z,0.90
2023-03-21T08:59:05.084Z,2.03
2023-03-21T09:01:32.522Z,1.50
2023-03-21T09:04:01.300Z,1.45
2023-03-21T09:06:29.970Z,1.42
2023-03-21T09:11:24.767Z,1.38
2023-03-21T09:13:52.259Z,2.20
2023-03-21T09:16:19.761Z,1.75
2023-03-21T09:18:49.415Z,0.98
2023-03-21T09:21:21.000Z,1.38
2023-03-21T09:23:52.591Z,1.40
2023-03-21T09:26:20.806Z,0.55
2023-03-21T09:28:49.048Z,1.48
2023-03-21T09:31:21.628Z,1.60
2023-03-21T09:33:49.879Z,1.05
2023-03-21T09:36:20.861Z,0.77
2023-03-21T09:38:50.301Z,1.80
2023-03-21T09:41:27.148Z,0.98
2023-03-21T09:44:08.153Z,2.20
2023-03-21T09:46:42.531Z,2.05
2023-03-21T09:49:17.599Z,1.52
2023-03-21T09:51:52.680Z,1.42
2023-03-21T09:54:25.322Z,1.17
2023-03-21T09:56:57.617Z,2.15
2023-03-21T09:59:33.536Z,2.00
2023-03-21T10:02:02.098Z,1.80
2023-03-21T10:04:31.847Z,1.08
2023-03-21T10:07:03.931Z,1.65
2023-03-21T10:09:33.184Z,1.98
2023-03-21T10:12:04.855Z,2.00
2023-03-21T10:14:36.278Z,1.95
2023-03-21T10:17:18.855Z,1.65
2023-03-21T10:19:47.967Z,1.65
2023-03-21T10:22:16.896Z,1.30
2023-03-21T10:24:44.389Z,1.65
2023-03-21T10:27:13.132Z,1.80
2023-03-21T10:29:43.510Z,2.08
2023-03-21T10:32:14.754Z,2.30
2023-03-21T10:34:46.822Z,1.98
2023-03-21T10:37:17.535Z,1.75
2023-03-21T10:39:48.108Z,2.33
2023-03-21T10:42:19.798Z,2.15
2023-03-21T10:44:48.745Z,2.28
2023-03-21T10:47:21.523Z,2.13
2023-03-21T10:50:07.020Z,3.03
2023-03-21T10:52:39.303Z,2.90
2023-03-21T10:55:16.623Z,3.22
2023-03-21T10:57:44.291Z,2.70
2023-03-21T11:00:21.286Z,2.95
2023-03-21T11:02:51.129Z,2.13
2023-03-21T11:05:23.405Z,0.32
2023-03-21T11:08:00.888Z,0.98
2023-03-21T11:10:30.542Z,2.42
2023-03-21T11:13:02.284Z,2.30
2023-03-21T11:15:33.039Z,2.28
2023-03-21T11:18:13.918Z,2.40
2023-03-21T11:20:49.154Z,1.58
2023-03-21T11:23:20.619Z,1.80
2023-03-21T11:25:51.305Z,1.55
2023-03-21T11:28:23.194Z,1.58
2023-03-21T11:30:54.162Z,1.95
2023-03-21T11:33:23.534Z,0.73
2023-03-21T11:36:02.687Z,1.52
2023-03-21T11:38:33.881Z,1.30
2023-03-21T11:41:03.623Z,1.90
2023-03-21T11:43:33.574Z,1.08
2023-03-21T11:46:06.995Z,2.10
2023-03-21T11:48:39.209Z,3.05
2023-03-21T11:51:20.232Z,2.70
2023-03-21T11:53:56.962Z,1.83
2023-03-21T11:56:28.325Z,2.58
2023-03-21T11:59:13.387Z,2.10
2023-03-21T12:01:53.729Z,1.65
2023-03-21T12:04:36.390Z,2.75
2023-03-21T12:07:13.414Z,1.80
2023-03-21T12:09:45.505Z,1.88
2023-03-21T12:12:38.354Z,0.73
2023-03-21T12:15:14.036Z,1.60
2023-03-21T12:17:53.738Z,1.50
2023-03-21T12:20:32.541Z,2.03
2023-03-21T12:23:16.310Z,1.63
2023-03-21T12:25:48.479Z,1.33
2023-03-21T12:28:32.961Z,1.70
2023-03-21T12:31:10.397Z,1.95
2023-03-21T12:33:52.359Z,1.85
2023-03-21T12:36:36.146Z,1.70
2023-03-21T12:39:13.645Z,1.30
2023-03-21T12:41:45.570Z,1.33
2023-03-21T12:44:16.027Z,1.50
2023-03-21T12:46:46.726Z,1.27
2023-03-21T12:49:19.486Z,1.13
2023-03-21T12:51:50.891Z,0.70
2023-03-21T12:54:27.178Z,1.38
2023-03-21T12:57:02.592Z,0.32
2023-03-21T12:59:37.462Z,0.85
2023-03-21T13:02:19.210Z,1.20
2023-03-21T13:05:01.525Z,1.05
2023-03-21T13:07:34.491Z,1.15
2023-03-21T13:10:03.897Z,1.48
2023-03-21T13:12:49.108Z,1.35
2023-03-21T13:15:29.879Z,1.40
2023-03-21T13:18:03.190Z,1.30
2023-03-21T13:20:41.411Z,1.48
2023-03-21T13:23:09.535Z,1.10
2023-03-21T13:25:44.059Z,0.98
2023-03-21T13:30:48.641Z,1.27
2023-03-21T13:33:21.503Z,1.00
2023-03-21T13:36:00.899Z,1.27
2023-03-21T13:38:30.378Z,1.20
2023-03-21T13:41:01.659Z,1.17
2023-03-21T13:43:39.897Z,1.67
2023-03-21T13:46:09.171Z,1.10
2023-03-21T13:48:59.133Z,1.20
2023-03-21T13:51:44.789Z,1.30
2023-03-21T13:54:25.365Z,1.27
2023-03-21T13:56:56.906Z,1.02
2023-03-21T13:59:41.530Z,1.25
2023-03-21T14:02:30.105Z,1.00
2023-03-21T14:05:06.439Z,0.90
2023-03-21T14:07:36.692Z,1.35
2023-03-21T14:10:07.884Z,0.70
2023-03-21T14:12:41.213Z,1.40
2023-03-21T14:15:18.961Z,1.20
2023-03-21T14:17:54.546Z,0.80
2023-03-21T14:20:24.631Z,1.20
2023-03-21T14:22:52.244Z,0.90
2023-03-21T14:25:21.584Z,0.80
2023-03-21T14:27:51.161Z,0.95
2023-03-21T14:30:25.824Z,1.17
2023-03-21T14:32:57.035Z,1.00
2023-03-21T14:35:24.666Z,0.80
2023-03-21T14:37:52.169Z,1.25
2023-03-21T14:40:23.645Z,1.17
2023-03-21T14:42:52.514Z,1.00
2023-03-21T14:45:23.501Z,0.93
2023-03-21T14:47:59.083Z,0.85
2023-03-21T14:50:37.540Z,1.30
2023-03-21T14:53:06.259Z,0.93
2023-03-21T14:55:34.655Z,1.13
2023-03-21T15:00:32.038Z,1.20
2023-03-21T15:03:00.841Z,1.38
2023-03-21T15:05:32.476Z,1.05
2023-03-21T15:08:01.626Z,0.90
2023-03-21T15:10:32.113Z,0.90
2023-03-21T15:13:02.207Z,1.10
2023-03-21T15:15:33.043Z,1.05
2023-03-21T15:18:05.895Z,0.95
2023-03-21T15:20:36.738Z,1.17
2023-03-21T15:23:09.375Z,0.82
2023-03-21T15:25:38.295Z,1.00
2023-03-21T15:28:06.704Z,0.93
2023-03-21T15:30:36.127Z,1.08
2023-03-21T15:33:10.209Z,0.93
2023-03-21T15:35:41.592Z,1.52
2023-03-21T15:38:23.316Z,1.40
2023-03-21T15:40:51.033Z,1.10
2023-03-21T15:43:20.578Z,1.23
2023-03-21T15:45:53.227Z,1.17
2023-03-21T15:48:25.714Z,0.73
2023-03-21T15:50:57.655Z,1.00
2023-03-21T15:53:25.482Z,0.98
2023-03-21T15:55:57.017Z,0.93
2023-03-21T15:58:26.824Z,1.20
2023-03-21T16:00:57.368Z,1.00
2023-03-21T16:03:27.576Z,1.02
2023-03-21T16:06:08.337Z,1.25
2023-03-21T16:08:40.415Z,1.13
2023-03-21T16:11:09.518Z,1.00
2023-03-21T16:13:37.416Z,1.40
2023-03-21T16:16:06.934Z,1.05
2023-03-21T16:18:34.496Z,1.00
2023-03-21T16:21:01.977Z,1.20
2023-03-21T16:23:29.799Z,1.10
2023-03-21T16:25:58.825Z,1.20
2023-03-21T16:28:26.335Z,1.42
2023-03-21T16:30:53.806Z,1.40
2023-03-21T16:33:25.317Z,1.35
2023-03-21T16:35:53.982Z,2.85
2023-03-21T16:38:21.451Z,1.85
2023-03-21T16:40:49.033Z,3.65
2023-03-21T16:43:16.483Z,4.82
2023-03-21T16:45:43.953Z,4.35
2023-03-21T16:48:16.331Z,3.53
2023-03-21T16:50:47.995Z,2.50
2023-03-21T16:53:17.002Z,4.97
2023-03-21T16:55:44.491Z,4.00
2023-03-21T16:58:15.445Z,5.40
2023-03-21T17:00:43.360Z,2.50
2023-03-21T17:03:15.693Z,2.97
2023-03-21T17:05:43.210Z,2.80
2023-03-21T17:08:17.453Z,3.33
2023-03-21T17:10:45.345Z,2.85
2023-03-21T17:13:13.126Z,3.05
2023-03-21T17:15:41.774Z,2.97
2023-03-21T17:18:10.861Z,3.90
2023-03-21T17:20:41.348Z,4.60
2023-03-21T17:23:10.108Z,4.65
2023-03-21T17:25:38.980Z,7.25
2023-03-21T17:28:06.559Z,6.25
2023-03-21T17:30:36.117Z,7.68
2023-03-21T17:33:04.178Z,10.75
2023-03-21T17:35:31.749Z,5.30
2023-03-21T17:37:59.943Z,4.60
2023-03-21T17:40:29.737Z,4.32
2023-03-21T17:42:59.205Z,3.67
2023-03-21T17:45:26.959Z,3.58
2023-03-21T17:47:54.744Z,3.63
2023-03-21T17:50:24.068Z,4.60
2023-03-21T17:52:52.140Z,4.03
2023-03-21T17:55:21.177Z,3.97
2023-03-21T17:57:49.606Z,3.00
2023-03-21T18:00:22.498Z,3.25
2023-03-21T18:02:50.922Z,3.08
2023-03-21T18:05:19.411Z,3.10
2023-03-21T18:10:34.272Z,3.08
2023-03-21T18:13:01.956Z,2.58
2023-03-21T18:15:31.082Z,4.07
2023-03-21T18:17:58.791Z,3.72
2023-03-21T18:20:49.918Z,3.85
2023-03-21T18:23:15.600Z,2.40
2023-03-21T18:25:43.757Z,2.60
2023-03-21T18:28:12.719Z,2.53
2023-03-21T18:31:00.691Z,1.75
2023-03-21T18:33:29.949Z,1.88
2023-03-21T18:35:59.629Z,2.17
2023-03-21T18:38:27.663Z,2.20
2023-03-21T18:40:55.725Z,2.10
2023-03-21T18:46:12.607Z,1.65
2023-03-21T18:48:40.445Z,2.10
2023-03-21T18:51:09.490Z,1.67
2023-03-21T18:53:37.212Z,2.00
2023-03-21T18:56:09.933Z,1.85
2023-03-21T18:58:38.470Z,2.05
2023-03-21T19:01:06.273Z,2.35
2023-03-21T19:03:37.465Z,2.17
2023-03-21T19:06:06.382Z,2.38
2023-03-21T19:08:38.363Z,2.15
2023-03-21T19:11:07.090Z,2.40
2023-03-21T19:13:35.646Z,2.47
2023-03-21T19:18:49.978Z,2.55
2023-03-21T19:21:21.575Z,2.42
2023-03-21T19:26:36.481Z,2.65
2023-03-21T19:29:03.991Z,2.60
2023-03-21T19:31:31.605Z,2.95
2023-03-21T19:33:59.474Z,2.72
2023-03-21T19:36:28.559Z,2.67
2023-03-21T19:38:56.192Z,2.40
2023-03-21T19:41:23.728Z,2.50
2023-03-21T19:43:55.155Z,3.67
2023-03-21T19:46:25.305Z,2.55
2023-03-21T19:48:56.579Z,2.78
2023-03-21T19:51:29.405Z,2.72
2023-03-21T19:53:59.463Z,2.55
2023-03-21T19:56:27.884Z,3.28
2023-03-21T19:58:56.078Z,2.70
2023-03-21T20:01:25.145Z,2.83
2023-03-21T20:03:53.116Z,3.72
2023-03-21T20:06:22.479Z,3.65
2023-03-21T20:09:27.636Z,3.67
2023-03-21T20:11:39.952Z,3.00
2023-03-21T20:14:07.502Z,2.40
2023-03-21T20:16:36.658Z,2.17
2023-03-21T20:19:05.732Z,2.25
2023-03-21T20:21:43.423Z,2.45
2023-03-21T20:24:16.179Z,2.83
2023-03-21T20:26:46.319Z,2.08
2023-03-21T20:30:05.709Z,1.80
2023-03-21T20:32:04.639Z,2.08
2023-03-21T20:34:32.272Z,1.77
2023-03-21T20:37:00.258Z,1.98
2023-03-21T20:39:29.913Z,1.83
2023-03-21T20:41:59.595Z,1.95
2023-03-21T20:44:51.979Z,5.22
2023-03-21T20:47:16.604Z,4.18
2023-03-21T20:49:44.297Z,2.55
2023-03-21T20:54:59.580Z,2.80
2023-03-21T20:57:28.712Z,3.20
2023-03-21T20:59:56.268Z,3.83
2023-03-21T21:02:25.049Z,4.57
2023-03-21T21:05:21.924Z,3.97
2023-03-21T21:07:41.768Z,3.83
2023-03-21T21:10:11.365Z,3.35
2023-03-21T21:12:45.244Z,3.25
2023-03-21T21:15:16.396Z,2.90
2023-03-21T21:18:05.470Z,3.80
2023-03-21T21:20:33.517Z,4.30
2023-03-21T21:23:01.221Z,5.68
2023-03-21T21:25:30.329Z,6.47
2023-03-21T21:28:01.494Z,7.30
2023-03-21T21:30:29.628Z,7.50
2023-03-21T21:32:59.390Z,6.10
2023-03-21T21:35:27.248Z,5.85
2023-03-21T21:37:54.698Z,5.55
2023-03-21T21:40:23.359Z,5.10
2023-03-21T21:42:51.179Z,5.70
2023-03-21T21:45:20.176Z,5.68
2023-03-21T21:47:47.681Z,5.68
2023-03-21T21:50:15.346Z,4.65
2023-03-21T21:52:52.356Z,5.63
2023-03-21T21:55:19.862Z,4.78
2023-03-21T21:57:50.194Z,4.45
2023-03-21T22:00:21.144Z,3.97
2023-03-21T22:02:48.765Z,4.82
2023-03-21T22:05:18.806Z,3.90
2023-03-21T22:07:46.393Z,4.15
2023-03-21T22:10:14.386Z,4.28
2023-03-21T22:12:41.843Z,4.03
2023-03-21T22:15:11.880Z,4.03
2023-03-21T22:17:42.099Z,4.75
2023-03-21T22:20:11.897Z,3.05
2023-03-21T22:22:39.575Z,3.35
2023-03-21T22:25:10.026Z,3.15
2023-03-21T22:27:38.195Z,2.78
2023-03-21T22:30:08.119Z,2.97
2023-03-21T22:32:37.469Z,3.20
2023-03-21T22:35:08.745Z,2.92
2023-03-21T22:37:37.991Z,3.22
2023-03-21T22:40:09.644Z,3.22
2023-03-21T22:42:39.470Z,2.90
2023-03-21T22:45:08.353Z,2.90
2023-03-21T22:47:36.291Z,3.35
2023-03-21T22:50:04.673Z,2.95
2023-03-21T22:52:33.441Z,2.88
2023-03-21T22:55:01.012Z,2.72
2023-03-21T22:57:28.447Z,2.60
2023-03-21T22:59:55.930Z,2.97
2023-03-21T23:02:23.378Z,2.58
2023-03-21T23:04:50.833Z,3.03
2023-03-21T23:07:18.330Z,2.97
2023-03-21T23:09:47.170Z,3.05
2023-03-21T23:12:16.775Z,2.40
2023-03-21T23:14:44.387Z,2.97
2023-03-21T23:17:12.394Z,2.97
2023-03-21T23:19:41.188Z,3.35
2023-03-21T23:22:08.799Z,3.40
2023-03-21T23:24:36.302Z,3.25
2023-03-21T23:27:05.340Z,3.50
2023-03-21T23:29:32.875Z,2.90
2023-03-21T23:32:00.826Z,3.08
2023-03-21T23:34:28.668Z,3.25
2023-03-21T23:36:56.162Z,3.17
2023-03-21T23:39:24.381Z,2.90
2023-03-21T23:41:51.891Z,2.97
2023-03-21T23:44:20.851Z,3.00
2023-03-21T23:46:48.283Z,3.67
2023-03-21T23:49:15.892Z,2.63
2023-03-21T23:51:44.909Z,3.33
2023-03-21T23:54:12.347Z,2.80
2023-03-21T23:56:39.997Z,2.80
2023-03-21T23:59:07.492Z,2.47
